Time;durP1;ratioP1;P1;durP2;ratioP2;P2;SDS_P1;SDS_P2;PMS_P1;PMS_P2;Temp;Humidity;BMP_temperature;BMP_pressure;BME280_temperature;BME280_humidity;BME280_pressure;Samples;Min_cycle;Max_cycle;Signal;HPM_P1;HPM_P2
2023/12/31 00:00:24;;;;;;;21.13;8.27;;;10.00;69.50;;;;;;7782179;22;20006;-75
2023/12/31 00:03:26;;;;;;;16.60;8.38;;;10.00;69.40;;;;;;7757292;22;20019;-75
2023/12/31 00:06:27;;;;;;;17.38;8.25;;;10.00;69.40;;;;;;7731869;22;20400;-75
2023/12/31 00:09:28;;;;;;;16.13;8.43;;;10.00;69.40;;;;;;7782543;22;21006;-75
2023/12/31 00:12:29;;;;;;;16.38;8.80;;;9.90;69.30;;;;;;7783057;22;20034;-75
2023/12/31 00:15:30;;;;;;;17.70;8.35;;;9.90;69.40;;;;;;7781911;22;20011;-76
2023/12/31 00:18:31;;;;;;;18.98;8.27;;;9.90;69.40;;;;;;7782328;22;20045;-75
2023/12/31 00:21:31;;;;;;;25.13;10.50;;;9.90;69.50;;;;;;7756733;22;20088;-74
2023/12/31 00:24:33;;;;;;;17.25;8.23;;;9.90;69.60;;;;;;7757530;22;20345;-76
2023/12/31 00:27:34;;;;;;;20.42;8.32;;;9.90;69.80;;;;;;7756701;22;21557;-76
2023/12/31 00:30:36;;;;;;;22.55;9.52;;;9.80;69.90;;;;;;7781233;22;20381;-76
2023/12/31 00:33:37;;;;;;;17.45;9.13;;;9.80;70.00;;;;;;7781499;22;20140;-74
2023/12/31 00:36:38;;;;;;;16.50;9.15;;;9.90;70.00;;;;;;7809919;22;20318;-76
2023/12/31 00:39:39;;;;;;;20.38;9.57;;;9.90;70.00;;;;;;7781615;22;20007;-76
2023/12/31 00:42:40;;;;;;;20.58;9.13;;;9.90;70.10;;;;;;7781634;22;20019;-75
2023/12/31 00:45:41;;;;;;;16.95;8.30;;;9.90;70.10;;;;;;7756050;22;19999;-75
2023/12/31 00:48:42;;;;;;;22.05;9.75;;;9.90;70.20;;;;;;7781091;22;20011;-75
2023/12/31 00:51:44;;;;;;;18.02;8.63;;;9.90;70.30;;;;;;7780465;22;20003;-75
2023/12/31 00:54:46;;;;;;;18.27;9.02;;;9.90;70.30;;;;;;7782228;22;20059;-76
2023/12/31 00:57:47;;;;;;;17.45;8.85;;;10.00;70.30;;;;;;7756777;22;20014;-75
2023/12/31 01:00:51;;;;;;;16.83;7.28;;;10.00;70.30;;;;;;7808932;22;20018;-76
2023/12/31 01:03:53;;;;;;;18.55;7.75;;;10.00;70.20;;;;;;7756046;22;20074;-75
2023/12/31 01:06:55;;;;;;;13.90;6.78;;;10.10;70.30;;;;;;7780874;22;20006;-74
2023/12/31 01:09:56;;;;;;;15.52;8.13;;;10.10;70.20;;;;;;7755461;22;20410;-75
2023/12/31 01:12:58;;;;;;;21.15;7.82;;;10.10;70.00;;;;;;7780953;22;20003;-73
2023/12/31 01:15:59;;;;;;;18.40;8.48;;;10.20;70.00;;;;;;7781614;22;20018;-76
2023/12/31 01:19:00;;;;;;;20.13;8.45;;;10.20;69.90;;;;;;7755582;22;20030;-75
2023/12/31 01:22:01;;;;;;;19.75;7.65;;;10.20;69.60;;;;;;7779558;22;20011;-75
2023/12/31 01:25:03;;;;;;;13.60;6.70;;;10.20;69.40;;;;;;7754000;22;20409;-76
2023/12/31 01:28:04;;;;;;;16.80;6.43;;;10.10;69.20;;;;;;7780174;22;20027;-74
2023/12/31 01:31:06;;;;;;;15.38;6.50;;;10.10;69.20;;;;;;7807868;22;20333;-75
2023/12/31 01:34:06;;;;;;;14.18;6.90;;;10.10;68.80;;;;;;7779589;22;20046;-76
2023/12/31 01:37:07;;;;;;;17.63;7.75;;;10.00;68.60;;;;;;7810551;22;20007;-75
2023/12/31 01:40:08;;;;;;;15.15;7.00;;;9.90;68.40;;;;;;7780487;22;20082;-74
2023/12/31 01:43:09;;;;;;;22.15;7.07;;;9.80;68.50;;;;;;7782102;22;20012;-74
2023/12/31 01:46:26;;;;;;;12.35;5.70;;;9.80;68.60;;;;;;7780861;22;20042;-76
2023/12/31 01:49:30;;;;;;;18.85;6.10;;;9.70;68.70;;;;;;7754929;22;20042;-76
2023/12/31 01:52:32;;;;;;;20.75;7.63;;;9.70;68.80;;;;;;7782884;22;20363;-75
2023/12/31 01:55:34;;;;;;;17.02;7.18;;;9.60;68.60;;;;;;7782837;22;20041;-76
2023/12/31 01:58:35;;;;;;;8.80;4.47;;;9.50;68.60;;;;;;7754529;22;20022;-75
2023/12/31 02:01:37;;;;;;;14.38;6.35;;;9.50;68.60;;;;;;7754564;22;20061;-75
2023/12/31 02:04:39;;;;;;;13.70;6.00;;;9.50;68.50;;;;;;7780065;22;20333;-75
2023/12/31 02:07:39;;;;;;;6.85;4.22;;;9.40;68.50;;;;;;7780125;22;20060;-75
2023/12/31 02:10:41;;;;;;;10.95;5.50;;;9.50;68.40;;;;;;7752939;22;20122;-77
2023/12/31 02:13:42;;;;;;;23.92;6.15;;;9.50;67.80;;;;;;7808401;22;20003;-75
2023/12/31 02:16:43;;;;;;;7.97;4.65;;;9.40;67.70;;;;;;7754192;22;20010;-73
2023/12/31 02:19:44;;;;;;;12.45;5.38;;;9.50;67.70;;;;;;7781213;22;20026;-74
2023/12/31 02:22:45;;;;;;;10.30;5.57;;;9.50;67.30;;;;;;7756603;22;20035;-75
2023/12/31 02:26:01;;;;;;;9.30;4.80;;;9.50;67.20;;;;;;7782357;22;20026;-76
2023/12/31 02:29:02;;;;;;;10.38;4.75;;;9.60;66.90;;;;;;7756756;22;20441;-75
2023/12/31 02:32:03;;;;;;;6.10;3.92;;;9.70;66.70;;;;;;7783180;22;20014;-75
2023/12/31 02:35:05;;;;;;;23.05;5.55;;;9.80;66.50;;;;;;7757635;22;20011;-74
2023/12/31 02:38:05;;;;;;;10.25;4.90;;;10.00;66.20;;;;;;7782732;22;20076;-76
2023/12/31 02:41:06;;;;;;;10.27;5.32;;;10.00;65.70;;;;;;7757668;22;20397;-75
2023/12/31 02:44:07;;;;;;;7.03;4.13;;;10.20;65.50;;;;;;7782881;22;19999;-75
2023/12/31 02:47:11;;;;;;;6.95;4.40;;;10.30;65.00;;;;;;7810926;22;20002;-76
2023/12/31 02:50:12;;;;;;;10.25;4.50;;;10.30;64.40;;;;;;7782446;22;19999;-74
2023/12/31 02:53:13;;;;;;;6.82;3.50;;;10.40;64.30;;;;;;7757480;22;20123;-75
2023/12/31 02:56:13;;;;;;;5.70;2.58;;;10.50;63.90;;;;;;7757637;22;20405;-74
2023/12/31 02:59:16;;;;;;;5.53;2.38;;;10.70;63.60;;;;;;7782276;22;20738;-76
2023/12/31 03:02:26;;;;;;;4.63;2.47;;;10.90;62.90;;;;;;7783822;22;20011;-75
2023/12/31 03:05:29;;;;;;;2.30;1.70;;;11.10;62.40;;;;;;7782029;22;20075;-75
2023/12/31 03:08:33;;;;;;;10.52;1.65;;;11.60;61.00;;;;;;7756902;22;20004;-74
2023/12/31 03:11:36;;;;;;;3.70;1.23;;;12.10;59.50;;;;;;7782910;22;20007;-76
2023/12/31 03:14:38;;;;;;;2.95;1.42;;;12.70;58.40;;;;;;7757910;22;20011;-76
2023/12/31 03:17:40;;;;;;;1.42;1.17;;;13.30;56.50;;;;;;7783039;22;20007;-74
2023/12/31 03:20:42;;;;;;;2.47;1.30;;;13.80;55.00;;;;;;7756380;22;20178;-75
2023/12/31 03:23:43;;;;;;;1.65;1.05;;;14.20;53.80;;;;;;7757434;22;20337;-75
2023/12/31 03:26:44;;;;;;;1.15;1.05;;;14.60;52.90;;;;;;7782333;22;20083;-75
2023/12/31 03:29:45;;;;;;;1.92;1.27;;;14.90;52.00;;;;;;7809047;22;19995;-75
2023/12/31 03:32:46;;;;;;;1.42;0.80;;;15.20;51.70;;;;;;7757504;22;20335;-76
2023/12/31 03:35:47;;;;;;;7.38;1.90;;;15.40;50.90;;;;;;7810680;22;20003;-76
2023/12/31 03:38:49;;;;;;;2.25;1.00;;;15.60;49.90;;;;;;7810592;22;20082;-76
2023/12/31 03:41:52;;;;;;;1.75;1.17;;;15.80;48.80;;;;;;7783129;22;20014;-75
2023/12/31 03:44:53;;;;;;;1.95;1.13;;;16.10;48.10;;;;;;7810508;22;20003;-76
2023/12/31 03:47:54;;;;;;;1.20;1.00;;;16.20;47.40;;;;;;7783109;22;20018;-76
2023/12/31 03:50:55;;;;;;;0.77;0.75;;;16.30;46.80;;;;;;7810217;22;20003;-75
2023/12/31 03:53:57;;;;;;;1.15;1.05;;;16.30;46.00;;;;;;7782909;22;20003;-75
2023/12/31 03:56:58;;;;;;;0.98;0.75;;;16.40;46.00;;;;;;7782991;22;20038;-77
2023/12/31 03:59:59;;;;;;;2.20;1.10;;;16.50;44.90;;;;;;7781385;22;20675;-76
2023/12/31 04:03:01;;;;;;;0.95;0.70;;;16.60;44.40;;;;;;7782644;22;20029;-75
2023/12/31 04:06:02;;;;;;;0.90;0.60;;;16.70;44.50;;;;;;7756082;22;20007;-75
2023/12/31 04:09:04;;;;;;;4.10;1.05;;;16.80;43.60;;;;;;7783016;22;20425;-75
2023/12/31 04:12:06;;;;;;;1.63;0.90;;;16.70;43.80;;;;;;7783359;22;19999;-76
2023/12/31 04:15:10;;;;;;;3.17;0.82;;;17.00;43.00;;;;;;7756633;22;20084;-76
2023/12/31 04:18:12;;;;;;;2.58;1.35;;;17.10;43.50;;;;;;7782798;22;20461;-75
2023/12/31 04:21:14;;;;;;;4.78;0.88;;;17.10;42.70;;;;;;7756286;22;20069;-75
2023/12/31 04:24:16;;;;;;;0.98;0.70;;;17.30;43.10;;;;;;7757857;22;20105;-75
2023/12/31 04:27:19;;;;;;;1.98;0.98;;;17.20;43.20;;;;;;7809700;22;20368;-76
2023/12/31 04:30:20;;;;;;;1.83;1.00;;;17.20;42.80;;;;;;7780612;22;20006;-76
2023/12/31 04:33:23;;;;;;;1.90;1.20;;;17.30;42.70;;;;;;7810471;22;20003;-75
2023/12/31 04:36:23;;;;;;;5.00;1.40;;;17.30;42.80;;;;;;7780738;22;20052;-75
2023/12/31 04:39:24;;;;;;;4.47;1.13;;;17.30;42.90;;;;;;7756616;22;20098;-76
2023/12/31 04:42:25;;;;;;;0.60;0.50;;;17.30;42.40;;;;;;7756244;22;20072;-76
2023/12/31 04:45:27;;;;;;;0.70;0.70;;;17.30;42.10;;;;;;7808684;22;20309;-75
2023/12/31 04:48:28;;;;;;;1.83;0.95;;;17.40;41.30;;;;;;7781569;22;20003;-75
2023/12/31 04:51:30;;;;;;;2.25;0.90;;;17.40;41.10;;;;;;7781536;22;20003;-74
2023/12/31 04:54:31;;;;;;;0.95;0.70;;;17.40;41.70;;;;;;7781921;22;20474;-75
2023/12/31 04:57:31;;;;;;;1.80;0.80;;;17.40;41.10;;;;;;7781203;22;20032;-76
2023/12/31 05:00:34;;;;;;;1.13;0.90;;;17.40;41.40;;;;;;7780846;22;20279;-76
2023/12/31 05:03:35;;;;;;;1.95;1.10;;;17.40;42.10;;;;;;7808569;22;20018;-75
2023/12/31 05:06:35;;;;;;;1.00;0.90;;;17.40;42.30;;;;;;7780894;22;20087;-75
2023/12/31 05:09:38;;;;;;;3.00;1.10;;;17.30;41.90;;;;;;7780609;22;19999;-75
2023/12/31 05:12:38;;;;;;;1.25;0.90;;;17.30;42.10;;;;;;7810675;22;20437;-75
2023/12/31 05:15:40;;;;;;;3.80;1.15;;;17.20;42.00;;;;;;7756606;22;20003;-75
2023/12/31 05:18:43;;;;;;;1.90;1.20;;;17.30;41.50;;;;;;7756014;22;20067;-74
2023/12/31 05:21:44;;;;;;;1.73;1.00;;;17.30;41.30;;;;;;7781624;22;20109;-76
2023/12/31 05:24:45;;;;;;;1.73;0.88;;;17.40;41.30;;;;;;7781469;22;20004;-75
2023/12/31 05:27:47;;;;;;;0.82;0.63;;;17.40;41.60;;;;;;7781923;22;20000;-74
2023/12/31 05:30:48;;;;;;;1.05;0.93;;;17.40;41.40;;;;;;7756176;22;20014;-75
2023/12/31 05:33:49;;;;;;;2.30;1.00;;;17.50;41.30;;;;;;7781646;22;20007;-75
2023/12/31 05:36:50;;;;;;;1.63;0.90;;;17.50;41.30;;;;;;7780880;22;20003;-74
2023/12/31 05:39:54;;;;;;;2.42;1.10;;;17.60;41.10;;;;;;7808495;22;20027;-75
2023/12/31 05:42:56;;;;;;;0.90;0.82;;;17.60;41.30;;;;;;7809226;22;20102;-76
2023/12/31 05:45:57;;;;;;;1.85;0.90;;;17.60;40.50;;;;;;7755048;22;20082;-76
2023/12/31 05:48:58;;;;;;;9.82;1.15;;;17.60;40.80;;;;;;7755739;22;20382;-77
2023/12/31 05:51:59;;;;;;;3.00;1.15;;;17.70;40.90;;;;;;7808905;22;19995;-76
2023/12/31 05:55:00;;;;;;;0.85;0.70;;;17.70;41.10;;;;;;7757481;22;20491;-75
2023/12/31 05:58:00;;;;;;;3.40;0.93;;;17.70;41.20;;;;;;7758234;22;20106;-75
2023/12/31 06:01:02;;;;;;;2.92;0.88;;;17.70;41.20;;;;;;7811492;22;20037;-75
2023/12/31 06:04:05;;;;;;;0.55;0.55;;;17.70;40.40;;;;;;7758135;22;20068;-76
2023/12/31 06:07:05;;;;;;;2.17;1.10;;;17.70;40.30;;;;;;7758861;22;20025;-73
2023/12/31 06:10:07;;;;;;;1.65;0.75;;;17.80;40.20;;;;;;7783216;22;19999;-76
2023/12/31 06:13:09;;;;;;;1.48;0.90;;;17.80;40.30;;;;;;7811715;22;19999;-75
2023/12/31 06:16:12;;;;;;;5.88;1.23;;;17.90;40.60;;;;;;7784092;22;20673;-75
2023/12/31 06:19:14;;;;;;;4.43;1.05;;;17.90;40.30;;;;;;7783148;22;20080;-75
2023/12/31 06:22:16;;;;;;;1.10;0.68;;;17.90;40.10;;;;;;7783321;22;20015;-75
2023/12/31 06:25:17;;;;;;;0.45;0.45;;;17.90;40.20;;;;;;7758752;22;20050;-75
2023/12/31 06:28:17;;;;;;;0.90;0.80;;;17.90;40.00;;;;;;7809705;22;20013;-75
2023/12/31 06:31:20;;;;;;;1.92;0.80;;;18.00;39.80;;;;;;7782017;22;20058;-76
2023/12/31 06:34:21;;;;;;;1.20;0.95;;;18.00;40.00;;;;;;7758464;22;20031;-76
2023/12/31 06:37:22;;;;;;;1.67;1.00;;;18.10;40.10;;;;;;7758499;22;20203;-75
2023/12/31 06:40:23;;;;;;;9.50;0.95;;;18.10;39.90;;;;;;7785287;22;20007;-77
2023/12/31 06:43:24;;;;;;;1.73;1.08;;;18.10;39.90;;;;;;7761650;22;19995;-75
2023/12/31 06:46:25;;;;;;;0.98;0.80;;;18.10;39.50;;;;;;7771301;22;20085;-75
2023/12/31 06:49:28;;;;;;;2.35;1.10;;;18.20;39.80;;;;;;7761337;22;20099;-75
2023/12/31 06:52:31;;;;;;;1.15;0.88;;;18.20;40.00;;;;;;7784674;22;20045;-75
2023/12/31 06:55:33;;;;;;;4.70;0.55;;;18.20;39.90;;;;;;7813159;22;20112;-76
2023/12/31 06:58:36;;;;;;;0.85;0.75;;;18.10;39.30;;;;;;7809222;22;20078;-76
2023/12/31 07:01:38;;;;;;;3.78;1.10;;;18.10;39.70;;;;;;7781454;22;20096;-75
2023/12/31 07:04:41;;;;;;;1.27;0.80;;;18.10;39.80;;;;;;7783565;22;20023;-75
2023/12/31 07:07:41;;;;;;;2.63;1.10;;;18.10;39.80;;;;;;7758927;22;20003;-73
2023/12/31 07:10:43;;;;;;;1.02;0.80;;;18.10;40.00;;;;;;7810561;22;20003;-75
2023/12/31 07:13:45;;;;;;;1.17;0.77;;;18.10;40.10;;;;;;7757093;22;20007;-75
2023/12/31 07:16:46;;;;;;;1.20;0.85;;;18.10;40.00;;;;;;7783810;22;20014;-76
2023/12/31 07:19:47;;;;;;;2.10;1.20;;;18.10;40.00;;;;;;7811238;22;20007;-76
2023/12/31 07:22:48;;;;;;;5.50;0.95;;;18.10;40.30;;;;;;7756466;22;20007;-76
2023/12/31 07:25:49;;;;;;;1.98;1.15;;;18.00;40.30;;;;;;7810430;22;20125;-76
2023/12/31 07:28:50;;;;;;;0.70;0.60;;;18.00;40.40;;;;;;7782164;22;20006;-75
2023/12/31 07:31:52;;;;;;;2.63;1.00;;;18.00;40.50;;;;;;7758134;22;20003;-75
2023/12/31 07:34:53;;;;;;;1.33;1.00;;;18.00;40.70;;;;;;7783726;22;20015;-76
2023/12/31 07:37:55;;;;;;;1.58;0.98;;;18.00;40.60;;;;;;7733397;22;20017;-76
2023/12/31 07:40:56;;;;;;;0.70;0.70;;;18.00;40.60;;;;;;7757261;22;20074;-76
2023/12/31 07:43:57;;;;;;;3.17;1.05;;;17.90;40.50;;;;;;7756262;22;20017;-75
2023/12/31 07:46:59;;;;;;;5.63;1.48;;;17.90;40.50;;;;;;7782920;22;20169;-75
2023/12/31 07:50:08;;;;;;;;;;;18.00;40.30;;;;;;7784675;22;20030;-75
2023/12/31 07:53:09;;;;;;;6.25;1.13;;;18.00;40.40;;;;;;7757779;22;19930;-75
2023/12/31 07:56:10;;;;;;;1.38;0.93;;;18.00;40.30;;;;;;7757826;22;20002;-76
2023/12/31 07:59:10;;;;;;;3.47;0.95;;;18.00;40.40;;;;;;7757271;22;20076;-76
2023/12/31 08:02:13;;;;;;;1.00;1.00;;;18.00;40.40;;;;;;7755917;22;20023;-76
2023/12/31 08:05:15;;;;;;;7.60;1.45;;;18.00;40.40;;;;;;7756567;22;19991;-76
2023/12/31 08:08:17;;;;;;;1.85;1.27;;;18.10;40.40;;;;;;7810452;22;20294;-74
2023/12/31 08:11:20;;;;;;;3.65;1.30;;;18.10;40.30;;;;;;7758037;22;20282;-75
2023/12/31 08:14:22;;;;;;;1.40;0.90;;;18.20;40.20;;;;;;7757409;22;20084;-76
2023/12/31 08:17:24;;;;;;;1.45;0.75;;;18.20;40.40;;;;;;7782782;22;19999;-75
2023/12/31 08:20:25;;;;;;;1.60;0.95;;;18.20;40.20;;;;;;7810464;22;20037;-75
2023/12/31 08:23:26;;;;;;;1.20;0.90;;;18.30;40.20;;;;;;7757547;22;20003;-75
2023/12/31 08:26:27;;;;;;;3.95;1.20;;;18.30;40.20;;;;;;7782982;22;20035;-74
2023/12/31 08:29:27;;;;;;;2.03;0.88;;;18.30;40.10;;;;;;7809454;22;20003;-76
2023/12/31 08:32:28;;;;;;;3.60;0.98;;;18.30;40.00;;;;;;7756654;22;20361;-75
2023/12/31 08:35:29;;;;;;;4.38;1.00;;;18.30;39.70;;;;;;7753462;22;20010;-75
2023/12/31 08:38:30;;;;;;;3.83;0.90;;;18.40;39.60;;;;;;7810470;22;20283;-75
2023/12/31 08:41:31;;;;;;;3.75;1.25;;;18.50;39.60;;;;;;7757248;22;20073;-75
2023/12/31 08:44:32;;;;;;;1.75;1.13;;;18.50;39.60;;;;;;7758193;22;20093;-75
2023/12/31 08:47:34;;;;;;;3.83;0.82;;;18.50;39.40;;;;;;7811168;22;19999;-76
2023/12/31 08:50:35;;;;;;;1.52;1.20;;;18.60;39.30;;;;;;7756810;22;20011;-76
2023/12/31 08:53:37;;;;;;;1.20;1.05;;;18.60;39.10;;;;;;7782038;22;20775;-75
2023/12/31 08:56:38;;;;;;;2.22;0.80;;;18.70;39.10;;;;;;7754769;22;20117;-74
2023/12/31 08:59:39;;;;;;;2.40;0.90;;;18.70;39.10;;;;;;7756645;22;20000;-76
2023/12/31 09:02:45;;;;;;;0.40;0.40;;;18.70;38.90;;;;;;7808939;22;20029;-75
2023/12/31 09:05:46;;;;;;;0.77;0.60;;;18.80;38.80;;;;;;7755777;22;20000;-76
2023/12/31 09:08:47;;;;;;;1.25;1.02;;;18.80;38.80;;;;;;7756091;22;20463;-75
2023/12/31 09:11:48;;;;;;;4.43;0.90;;;18.80;38.90;;;;;;7782085;22;20022;-76
2023/12/31 09:14:48;;;;;;;1.42;0.80;;;18.80;39.10;;;;;;7781579;22;20006;-76
2023/12/31 09:17:51;;;;;;;2.05;0.90;;;18.90;39.20;;;;;;7781733;22;20068;-76
2023/12/31 09:20:52;;;;;;;0.82;0.68;;;18.90;39.30;;;;;;7781556;22;20026;-77
2023/12/31 09:23:53;;;;;;;2.85;0.80;;;19.10;39.10;;;;;;7757170;22;20003;-76
2023/12/31 09:26:54;;;;;;;1.38;0.90;;;18.90;38.70;;;;;;7755942;22;20102;-77
2023/12/31 09:29:55;;;;;;;1.35;0.88;;;18.90;38.60;;;;;;7781523;22;20006;-77
2023/12/31 09:32:58;;;;;;;0.65;0.55;;;18.90;38.70;;;;;;7781850;22;19995;-74
2023/12/31 09:36:04;;;;;;;1.65;0.80;;;19.00;39.00;;;;;;7780925;22;20003;-76
2023/12/31 09:39:05;;;;;;;0.57;0.52;;;19.00;38.90;;;;;;7730157;22;20046;-75
2023/12/31 09:42:15;;;;;;;1.00;0.80;;;19.00;38.80;;;;;;7756671;22;20026;-76
2023/12/31 09:45:23;;;;;;;0.73;0.73;;;19.00;38.70;;;;;;7780965;22;20011;-79
2023/12/31 09:48:25;;;;;;;2.55;0.70;;;19.00;38.90;;;;;;7780812;22;20000;-77
2023/12/31 09:51:27;;;;;;;1.70;0.90;;;19.00;39.00;;;;;;7809300;22;20053;-77
2023/12/31 09:54:30;;;;;;;6.40;0.68;;;19.00;38.90;;;;;;7782188;22;20063;-75
2023/12/31 09:57:34;;;;;;;1.80;0.68;;;19.00;38.80;;;;;;7782350;22;20011;-76
2023/12/31 10:00:36;;;;;;;0.90;0.70;;;19.00;38.90;;;;;;7809898;22;20075;-78
2023/12/31 10:03:38;;;;;;;3.08;0.90;;;19.00;38.80;;;;;;7808500;22;20413;-78
2023/12/31 10:06:40;;;;;;;1.15;0.77;;;19.00;38.40;;;;;;7756189;22;19999;-77
2023/12/31 10:09:42;;;;;;;0.85;0.75;;;19.00;38.40;;;;;;7756586;22;20000;-78
2023/12/31 10:12:43;;;;;;;0.75;0.70;;;19.00;38.40;;;;;;7782417;22;20441;-76
2023/12/31 10:15:45;;;;;;;4.13;0.77;;;19.10;38.70;;;;;;7756624;22;20011;-76
2023/12/31 10:18:46;;;;;;;1.92;0.80;;;19.10;38.60;;;;;;7781432;22;20011;-76
2023/12/31 10:21:47;;;;;;;1.90;1.00;;;19.20;38.70;;;;;;7756551;22;20065;-77
2023/12/31 10:24:47;;;;;;;2.13;0.90;;;19.20;38.60;;;;;;7809891;22;19995;-77
2023/12/31 10:27:48;;;;;;;2.35;1.08;;;19.30;38.70;;;;;;7781563;22;20000;-76
2023/12/31 10:30:49;;;;;;;2.45;0.70;;;19.30;38.80;;;;;;7754977;22;19999;-77
2023/12/31 10:33:50;;;;;;;0.90;0.70;;;19.40;38.70;;;;;;7756052;22;20003;-76
2023/12/31 10:37:05;;;;;;;0.63;0.60;;;19.30;38.80;;;;;;7755863;22;20003;-76
2023/12/31 10:40:19;;;;;;;1.27;0.90;;;19.40;38.80;;;;;;7779247;22;20104;-76
2023/12/31 10:43:22;;;;;;;3.92;0.85;;;19.40;38.50;;;;;;7811738;22;20330;-76
2023/12/31 10:46:26;;;;;;;1.63;0.80;;;19.50;38.50;;;;;;7783892;22;20139;-76
2023/12/31 10:49:30;;;;;;;1.10;0.73;;;19.50;38.40;;;;;;7783439;22;20143;-75
2023/12/31 10:52:32;;;;;;;2.15;0.60;;;19.50;38.50;;;;;;7783964;22;20034;-77
2023/12/31 10:55:34;;;;;;;1.00;0.80;;;19.50;38.30;;;;;;7783202;22;20479;-77
2023/12/31 10:58:35;;;;;;;1.60;0.82;;;19.60;38.20;;;;;;7758531;22;20015;-78
2023/12/31 11:01:36;;;;;;;1.92;0.88;;;19.60;38.30;;;;;;7782968;22;20014;-76
2023/12/31 11:04:38;;;;;;;1.25;0.80;;;19.70;38.40;;;;;;7810285;22;20002;-77
2023/12/31 11:07:40;;;;;;;1.25;0.60;;;19.70;38.30;;;;;;7783381;22;20406;-77
2023/12/31 11:10:43;;;;;;;1.20;0.75;;;19.70;38.20;;;;;;7757028;22;20003;-75
2023/12/31 11:13:49;;;;;;;1.48;0.90;;;19.80;38.40;;;;;;7734216;22;20006;-77
2023/12/31 11:17:24;;;;;;;1.20;0.82;;;19.90;38.20;;;;;;7758251;22;20003;-76
2023/12/31 11:20:44;;;;;;;0.85;0.60;;;20.00;38.10;;;;;;7594570;23;20638;-76
2023/12/31 11:24:06;;;;;;;0.75;0.70;;;19.90;37.80;;;;;;7593463;23;20100;-77
2023/12/31 11:27:15;;;;;;;3.85;0.82;;;19.90;38.10;;;;;;7592815;23;20005;-76
2023/12/31 11:30:36;;;;;;;1.80;0.63;;;19.80;38.20;;;;;;7592944;23;20009;-76
2023/12/31 11:33:40;;;;;;;0.95;0.75;;;19.80;38.10;;;;;;7617965;23;20062;-77
2023/12/31 11:36:41;;;;;;;1.25;0.55;;;19.80;38.10;;;;;;7595393;23;20101;-76
2023/12/31 11:39:49;;;;;;;3.13;0.70;;;19.70;38.20;;;;;;7594403;23;20174;-76
2023/12/31 11:42:50;;;;;;;0.75;0.65;;;19.70;38.30;;;;;;7570722;23;20029;-75
2023/12/31 11:45:53;;;;;;;3.90;1.15;;;19.70;38.40;;;;;;7595215;23;20005;-76
2023/12/31 11:48:56;;;;;;;1.10;0.63;;;19.70;38.50;;;;;;7618257;23;20129;-75
2023/12/31 11:52:01;;;;;;;0.40;0.40;;;19.70;38.50;;;;;;7594283;23;20066;-76
2023/12/31 11:55:03;;;;;;;0.73;0.47;;;19.70;38.60;;;;;;7596493;23;20032;-76
2023/12/31 11:58:05;;;;;;;1.30;0.55;;;19.70;38.70;;;;;;7701647;22;20008;-77
2023/12/31 12:01:06;;;;;;;0.45;0.40;;;19.70;38.80;;;;;;7717722;22;20023;-76
2023/12/31 12:04:09;;;;;;;1.05;0.60;;;19.60;38.70;;;;;;7719856;22;20007;-76
2023/12/31 12:07:10;;;;;;;0.57;0.57;;;19.70;38.90;;;;;;7743573;22;20003;-74
2023/12/31 12:10:12;;;;;;;1.13;0.63;;;19.70;39.00;;;;;;7718683;22;20507;-75
2023/12/31 12:13:14;;;;;;;0.30;0.30;;;19.80;38.90;;;;;;7719114;22;20037;-76
2023/12/31 12:16:15;;;;;;;2.28;0.50;;;19.80;39.10;;;;;;7717244;22;20014;-77
2023/12/31 12:19:16;;;;;;;0.80;0.70;;;19.80;39.10;;;;;;7744263;22;20015;-76
2023/12/31 12:22:18;;;;;;;0.50;0.50;;;19.80;39.00;;;;;;7720056;22;20034;-76
2023/12/31 12:25:20;;;;;;;0.65;0.45;;;19.70;39.20;;;;;;7745350;22;19999;-75
2023/12/31 12:28:21;;;;;;;0.90;0.70;;;19.70;39.30;;;;;;7744155;22;20000;-76
2023/12/31 12:31:22;;;;;;;0.40;0.40;;;19.70;39.30;;;;;;7719968;22;20063;-77
2023/12/31 12:34:26;;;;;;;0.65;0.40;;;19.70;39.30;;;;;;7718418;22;20442;-77
2023/12/31 12:37:31;;;;;;;0.73;0.50;;;19.70;39.50;;;;;;7728172;22;20015;-77
2023/12/31 12:40:32;;;;;;;1.13;0.60;;;19.70;39.70;;;;;;7782835;22;20025;-76
2023/12/31 12:43:34;;;;;;;1.15;0.55;;;19.60;39.90;;;;;;7782299;22;20144;-76
2023/12/31 12:46:35;;;;;;;1.00;0.52;;;19.50;40.10;;;;;;7780927;22;20022;-76
2023/12/31 12:49:39;;;;;;;1.50;0.60;;;19.50;40.30;;;;;;7782688;22;19999;-76
2023/12/31 12:52:40;;;;;;;1.13;0.50;;;19.40;40.40;;;;;;7781747;22;20332;-77
2023/12/31 12:55:40;;;;;;;0.47;0.47;;;19.40;40.70;;;;;;7782676;22;20007;-76
2023/12/31 12:58:41;;;;;;;1.35;0.82;;;19.30;40.90;;;;;;7782689;22;20010;-78
2023/12/31 13:01:44;;;;;;;2.50;1.60;;;19.20;41.10;;;;;;7781823;22;20121;-77
2023/12/31 13:04:47;;;;;;;3.08;0.95;;;19.10;43.20;;;;;;7755734;22;19999;-76
2023/12/31 13:07:49;;;;;;;4.15;1.00;;;18.70;45.20;;;;;;7782140;22;20414;-77
2023/12/31 13:10:51;;;;;;;1.60;0.70;;;18.20;45.80;;;;;;7812632;22;20369;-78
2023/12/31 13:13:52;;;;;;;3.90;1.05;;;17.50;45.90;;;;;;7781439;22;20493;-76
2023/12/31 13:16:53;;;;;;;0.95;0.57;;;16.90;46.60;;;;;;7758924;22;20076;-78
2023/12/31 13:19:54;;;;;;;0.63;0.30;;;16.50;46.80;;;;;;7780127;22;20064;-78
2023/12/31 13:22:56;;;;;;;1.48;0.35;;;16.20;46.80;;;;;;7754936;22;20064;-77
2023/12/31 13:25:57;;;;;;;0.30;0.30;;;16.00;46.80;;;;;;7756112;22;20007;-78
2023/12/31 13:28:59;;;;;;;4.85;0.50;;;15.70;47.00;;;;;;7782095;22;20026;-77
2023/12/31 13:32:01;;;;;;;1.38;0.25;;;15.50;48.20;;;;;;7730611;22;20043;-76
2023/12/31 13:35:01;;;;;;;1.10;0.50;;;14.90;49.60;;;;;;7756062;22;20003;-76
2023/12/31 13:38:02;;;;;;;1.25;0.70;;;14.50;51.00;;;;;;7755837;22;20014;-76
2023/12/31 13:41:03;;;;;;;2.13;0.20;;;14.10;52.40;;;;;;7756126;22;20023;-76
2023/12/31 13:44:04;;;;;;;0.17;0.17;;;13.60;53.60;;;;;;7782434;22;20072;-76
2023/12/31 13:47:05;;;;;;;0.03;0.03;;;13.20;54.40;;;;;;7756503;22;20007;-75
2023/12/31 13:50:07;;;;;;;0.40;0.22;;;12.90;54.80;;;;;;7755783;22;20310;-74
2023/12/31 13:53:10;;;;;;;0.30;0.30;;;12.70;55.40;;;;;;7757370;22;20011;-75
2023/12/31 13:56:11;;;;;;;0.43;0.10;;;12.60;56.00;;;;;;7757326;22;20011;-73
2023/12/31 13:59:12;;;;;;;0.15;0.15;;;12.40;56.80;;;;;;7809363;22;20386;-76
2023/12/31 14:02:13;;;;;;;0.10;0.03;;;12.20;57.70;;;;;;7780918;22;20140;-75
2023/12/31 14:05:14;;;;;;;0.22;0.22;;;12.10;57.30;;;;;;7755344;22;19999;-76
2023/12/31 14:08:16;;;;;;;0.00;0.00;;;12.00;57.80;;;;;;7781632;22;20010;-74
2023/12/31 14:11:17;;;;;;;0.25;0.22;;;11.90;58.10;;;;;;7756128;22;20417;-75
2023/12/31 14:14:19;;;;;;;2.40;0.28;;;11.80;58.50;;;;;;7757480;22;20099;-75
2023/12/31 14:17:20;;;;;;;1.20;0.40;;;11.80;58.70;;;;;;7785145;22;20080;-75
2023/12/31 14:20:22;;;;;;;0.25;0.25;;;11.80;59.00;;;;;;7784777;22;20014;-75
2023/12/31 14:23:22;;;;;;;0.00;0.00;;;11.70;59.30;;;;;;7785587;22;20007;-75
2023/12/31 14:26:23;;;;;;;0.00;0.00;;;11.70;59.60;;;;;;7784665;22;20054;-75
2023/12/31 14:29:25;;;;;;;1.33;0.30;;;11.60;59.70;;;;;;7757889;22;20050;-74
2023/12/31 14:32:26;;;;;;;0.10;0.10;;;11.60;60.30;;;;;;7783644;22;20065;-75
2023/12/31 14:35:28;;;;;;;0.25;0.15;;;11.60;60.90;;;;;;7811342;22;20437;-74
2023/12/31 14:38:28;;;;;;;6.72;0.10;;;11.50;61.20;;;;;;7757943;22;20015;-74
2023/12/31 14:41:29;;;;;;;1.35;0.30;;;11.50;61.80;;;;;;7783249;22;20062;-74
2023/12/31 14:44:30;;;;;;;0.10;0.10;;;11.50;62.10;;;;;;7812284;22;20317;-75
2023/12/31 14:47:31;;;;;;;4.28;1.40;;;11.50;62.50;;;;;;7783693;22;20370;-75
2023/12/31 14:50:32;;;;;;;4.57;1.75;;;11.50;62.70;;;;;;7758036;22;20057;-75
2023/12/31 14:53:33;;;;;;;0.05;0.05;;;11.50;62.50;;;;;;7811695;22;20007;-75
2023/12/31 14:56:37;;;;;;;1.23;0.63;;;11.50;62.70;;;;;;7758499;22;21461;-75
2023/12/31 14:59:38;;;;;;;2.10;0.40;;;11.50;62.90;;;;;;7811661;22;20428;-75
2023/12/31 15:02:41;;;;;;;0.22;0.22;;;11.50;63.20;;;;;;7783840;22;20014;-75
2023/12/31 15:05:43;;;;;;;0.70;0.30;;;11.40;63.60;;;;;;7757953;22;20485;-76
2023/12/31 15:08:49;;;;;;;0.55;0.28;;;11.50;64.20;;;;;;7811702;22;19996;-75
2023/12/31 15:11:53;;;;;;;0.30;0.30;;;11.50;64.60;;;;;;7811582;22;20408;-76
2023/12/31 15:14:53;;;;;;;0.20;0.20;;;11.50;64.60;;;;;;7783381;22;19999;-75
2023/12/31 15:17:55;;;;;;;1.13;0.40;;;11.40;64.80;;;;;;7783271;22;20022;-74
2023/12/31 15:20:56;;;;;;;1.00;0.30;;;11.40;65.40;;;;;;7783069;22;20106;-76
2023/12/31 15:23:57;;;;;;;6.75;2.80;;;11.30;65.50;;;;;;7782744;22;20007;-76
2023/12/31 15:26:59;;;;;;;1.60;0.80;;;11.20;65.70;;;;;;7757199;22;19999;-74
2023/12/31 15:30:05;;;;;;;0.65;0.52;;;11.20;65.80;;;;;;7757631;22;19999;-75
2023/12/31 15:33:08;;;;;;;1.08;0.45;;;11.20;66.20;;;;;;7782977;22;20664;-74
2023/12/31 15:36:10;;;;;;;0.13;0.13;;;11.30;66.60;;;;;;7810454;22;20101;-75
2023/12/31 15:39:15;;;;;;;1.40;0.40;;;11.30;66.70;;;;;;7782658;22;20091;-75
2023/12/31 15:42:16;;;;;;;0.77;0.20;;;11.30;66.90;;;;;;7810656;22;20022;-74
2023/12/31 15:45:17;;;;;;;0.93;0.40;;;11.40;66.90;;;;;;7757041;22;20124;-75